Terminal Aerodrome Forecast
Issued by NWS

Home | Current Version | Previous Version | Text Only | Print | Product List | Glossary On
Versions: 1 2 3 4 5 6 7 8 9 10 11 12 13 14 15 16 17 18 19 20 21 22 23 24 25 26 27 28 29 30 31
000
FTUS45 KBYZ 211731
TAFLVM
TAF
KLVM 211731Z 2118/2218 08008KT P6SM FEW090
     FM212200 08013KT P6SM FEW090 SCT200
     FM220500 VRB05KT P6SM FEW090 BKN150
     FM221500 25010KT P6SM VCSH SCT080 BKN120=

USA.gov is the U.S. government's official web portal to all federal, state and local government web resources and services.